sensor_id;sensor_type;location;lat;lon;timestamp;temperature;humidity
4759;DHT22;2393;50.560;12.636;2024-03-02T00:05:28;7.40;99.90
4759;DHT22;2393;50.560;12.636;2024-03-02T00:07:57;7.40;99.90
4759;DHT22;2393;50.560;12.636;2024-03-02T00:10:31;7.40;99.90
4759;DHT22;2393;50.560;12.636;2024-03-02T00:13:04;7.40;99.90
4759;DHT22;2393;50.560;12.636;2024-03-02T00:15:44;7.40;99.90
4759;DHT22;2393;50.560;12.636;2024-03-02T00:18:17;7.40;99.90
4759;DHT22;2393;50.560;12.636;2024-03-02T00:20:48;7.40;99.90
4759;DHT22;2393;50.560;12.636;2024-03-02T00:23:16;7.40;99.90
4759;DHT22;2393;50.560;12.636;2024-03-02T00:25:48;7.40;99.90
4759;DHT22;2393;50.560;12.636;2024-03-02T00:28:19;7.40;99.90
4759;DHT22;2393;50.560;12.636;2024-03-02T00:31:03;7.40;99.90
4759;DHT22;2393;50.560;12.636;2024-03-02T00:33:34;7.40;99.90
4759;DHT22;2393;50.560;12.636;2024-03-02T00:36:05;7.40;99.90
4759;DHT22;2393;50.560;12.636;2024-03-02T00:38:34;7.40;99.90
4759;DHT22;2393;50.560;12.636;2024-03-02T00:41:05;7.40;99.90
4759;DHT22;2393;50.560;12.636;2024-03-02T00:43:43;7.40;99.90
4759;DHT22;2393;50.560;12.636;2024-03-02T00:46:16;7.40;99.90
4759;DHT22;2393;50.560;12.636;2024-03-02T00:48:52;7.40;99.90
4759;DHT22;2393;50.560;12.636;2024-03-02T00:51:24;7.40;99.90
4759;DHT22;2393;50.560;12.636;2024-03-02T00:53:54;7.30;99.90
4759;DHT22;2393;50.560;12.636;2024-03-02T00:56:24;7.20;99.90
4759;DHT22;2393;50.560;12.636;2024-03-02T00:58:53;7.30;99.90
4759;DHT22;2393;50.560;12.636;2024-03-02T01:01:22;7.30;99.90
4759;DHT22;2393;50.560;12.636;2024-03-02T01:03:50;7.30;99.90
4759;DHT22;2393;50.560;12.636;2024-03-02T01:06:19;7.30;99.90
4759;DHT22;2393;50.560;12.636;2024-03-02T01:08:51;7.30;99.90
4759;DHT22;2393;50.560;12.636;2024-03-02T01:11:20;7.40;99.90
4759;DHT22;2393;50.560;12.636;2024-03-02T01:13:50;7.30;99.90
4759;DHT22;2393;50.560;12.636;2024-03-02T01:16:19;7.40;99.90
4759;DHT22;2393;50.560;12.636;2024-03-02T01:18:49;7.40;99.90
4759;DHT22;2393;50.560;12.636;2024-03-02T01:21:17;7.30;99.90
4759;DHT22;2393;50.560;12.636;2024-03-02T01:23:46;7.40;99.90
4759;DHT22;2393;50.560;12.636;2024-03-02T01:26:16;7.30;99.90
4759;DHT22;2393;50.560;12.636;2024-03-02T01:28:45;7.30;99.90
4759;DHT22;2393;50.560;12.636;2024-03-02T01:31:13;7.40;99.90
4759;DHT22;2393;50.560;12.636;2024-03-02T01:33:42;7.40;99.90
4759;DHT22;2393;50.560;12.636;2024-03-02T01:36:10;7.40;99.90
4759;DHT22;2393;50.560;12.636;2024-03-02T01:38:40;7.40;99.90
4759;DHT22;2393;50.560;12.636;2024-03-02T01:41:08;7.40;99.90
4759;DHT22;2393;50.560;12.636;2024-03-02T01:43:38;7.40;99.90
4759;DHT22;2393;50.560;12.636;2024-03-02T01:46:08;7.40;99.90
4759;DHT22;2393;50.560;12.636;2024-03-02T01:48:37;7.40;99.90
4759;DHT22;2393;50.560;12.636;2024-03-02T01:51:06;7.30;99.90
4759;DHT22;2393;50.560;12.636;2024-03-02T01:53:39;7.40;99.90
4759;DHT22;2393;50.560;12.636;2024-03-02T01:56:07;7.30;99.90
4759;DHT22;2393;50.560;12.636;2024-03-02T01:58:37;7.30;99.90
4759;DHT22;2393;50.560;12.636;2024-03-02T02:01:06;7.30;99.90
4759;DHT22;2393;50.560;12.636;2024-03-02T02:03:35;7.30;99.90
4759;DHT22;2393;50.560;12.636;2024-03-02T02:06:04;7.10;99.90
4759;DHT22;2393;50.560;12.636;2024-03-02T02:08:32;7.10;99.90
4759;DHT22;2393;50.560;12.636;2024-03-02T02:11:01;7.20;99.90
4759;DHT22;2393;50.560;12.636;2024-03-02T02:13:29;7.10;99.90
4759;DHT22;2393;50.560;12.636;2024-03-02T02:16:06;7.20;99.90
4759;DHT22;2393;50.560;12.636;2024-03-02T02:18:35;7.20;99.90
4759;DHT22;2393;50.560;12.636;2024-03-02T02:21:03;7.20;99.90
4759;DHT22;2393;50.560;12.636;2024-03-02T02:23:33;7.10;99.90
4759;DHT22;2393;50.560;12.636;2024-03-02T02:26:02;7.20;99.90
4759;DHT22;2393;50.560;12.636;2024-03-02T02:28:31;7.20;99.90
4759;DHT22;2393;50.560;12.636;2024-03-02T02:30:59;7.20;99.90
4759;DHT22;2393;50.560;12.636;2024-03-02T02:33:28;7.20;99.90
4759;DHT22;2393;50.560;12.636;2024-03-02T02:35:57;7.20;99.90
4759;DHT22;2393;50.560;12.636;2024-03-02T02:38:25;7.20;99.90
4759;DHT22;2393;50.560;12.636;2024-03-02T02:40:55;7.10;99.90
4759;DHT22;2393;50.560;12.636;2024-03-02T02:43:23;7.10;99.90
4759;DHT22;2393;50.560;12.636;2024-03-02T02:45:52;7.20;99.90
4759;DHT22;2393;50.560;12.636;2024-03-02T02:48:20;7.20;99.90
4759;DHT22;2393;50.560;12.636;2024-03-02T02:50:49;7.10;99.90
4759;DHT22;2393;50.560;12.636;2024-03-02T02:53:17;7.10;99.90
4759;DHT22;2393;50.560;12.636;2024-03-02T02:55:46;7.20;99.90
4759;DHT22;2393;50.560;12.636;2024-03-02T02:58:16;7.10;99.90
4759;DHT22;2393;50.560;12.636;2024-03-02T03:00:44;7.10;99.90
4759;DHT22;2393;50.560;12.636;2024-03-02T03:03:12;7.10;99.90
4759;DHT22;2393;50.560;12.636;2024-03-02T03:05:41;7.10;99.90
4759;DHT22;2393;50.560;12.636;2024-03-02T03:08:10;7.10;99.90
4759;DHT22;2393;50.560;12.636;2024-03-02T03:10:38;7.10;99.90
4759;DHT22;2393;50.560;12.636;2024-03-02T03:13:07;7.10;99.90
4759;DHT22;2393;50.560;12.636;2024-03-02T03:15:37;7.20;99.90
4759;DHT22;2393;50.560;12.636;2024-03-02T03:18:06;7.20;99.90
4759;DHT22;2393;50.560;12.636;2024-03-02T03:20:36;7.20;99.90
4759;DHT22;2393;50.560;12.636;2024-03-02T03:23:04;7.20;99.90
4759;DHT22;2393;50.560;12.636;2024-03-02T03:25:33;7.20;99.90
4759;DHT22;2393;50.560;12.636;2024-03-02T03:28:01;7.20;99.90
4759;DHT22;2393;50.560;12.636;2024-03-02T03:30:30;7.20;99.90
4759;DHT22;2393;50.560;12.636;2024-03-02T03:33:00;7.20;99.90
4759;DHT22;2393;50.560;12.636;2024-03-02T03:35:28;7.20;99.90
4759;DHT22;2393;50.560;12.636;2024-03-02T03:37:56;7.20;99.90
4759;DHT22;2393;50.560;12.636;2024-03-02T03:40:25;7.20;99.90
4759;DHT22;2393;50.560;12.636;2024-03-02T03:42:53;7.20;99.90
4759;DHT22;2393;50.560;12.636;2024-03-02T03:45:24;7.20;99.90
4759;DHT22;2393;50.560;12.636;2024-03-02T03:47:54;7.20;99.90
4759;DHT22;2393;50.560;12.636;2024-03-02T03:50:24;7.20;99.90
4759;DHT22;2393;50.560;12.636;2024-03-02T03:52:53;7.30;99.90
4759;DHT22;2393;50.560;12.636;2024-03-02T03:55:21;7.30;99.90
4759;DHT22;2393;50.560;12.636;2024-03-02T03:57:49;7.30;99.90
4759;DHT22;2393;50.560;12.636;2024-03-02T04:00:18;7.20;99.90
4759;DHT22;2393;50.560;12.636;2024-03-02T04:02:46;7.30;99.90
4759;DHT22;2393;50.560;12.636;2024-03-02T04:05:15;7.20;99.90
4759;DHT22;2393;50.560;12.636;2024-03-02T04:07:44;7.20;99.90
4759;DHT22;2393;50.560;12.636;2024-03-02T04:10:13;7.20;99.90
4759;DHT22;2393;50.560;12.636;2024-03-02T04:12:41;7.20;99.90
4759;DHT22;2393;50.560;12.636;2024-03-02T04:15:10;7.20;99.90
4759;DHT22;2393;50.560;12.636;2024-03-02T04:17:38;7.20;99.90
4759;DHT22;2393;50.560;12.636;2024-03-02T04:20:07;7.20;99.90
4759;DHT22;2393;50.560;12.636;2024-03-02T04:22:36;7.20;99.90
4759;DHT22;2393;50.560;12.636;2024-03-02T04:25:06;7.30;99.90
4759;DHT22;2393;50.560;12.636;2024-03-02T04:27:35;7.30;99.90
4759;DHT22;2393;50.560;12.636;2024-03-02T04:30:05;7.30;99.90
4759;DHT22;2393;50.560;12.636;2024-03-02T04:32:33;7.20;99.90
4759;DHT22;2393;50.560;12.636;2024-03-02T04:35:04;7.30;99.90
4759;DHT22;2393;50.560;12.636;2024-03-02T04:37:34;7.20;99.90
4759;DHT22;2393;50.560;12.636;2024-03-02T04:40:03;7.20;99.90
4759;DHT22;2393;50.560;12.636;2024-03-02T04:42:36;7.20;99.90
4759;DHT22;2393;50.560;12.636;2024-03-02T04:45:06;7.30;99.90
4759;DHT22;2393;50.560;12.636;2024-03-02T04:47:34;7.30;99.90
4759;DHT22;2393;50.560;12.636;2024-03-02T04:50:04;7.30;99.90
4759;DHT22;2393;50.560;12.636;2024-03-02T04:52:39;7.30;99.90
4759;DHT22;2393;50.560;12.636;2024-03-02T04:55:07;7.30;99.90
4759;DHT22;2393;50.560;12.636;2024-03-02T04:57:58;7.30;99.90
4759;DHT22;2393;50.560;12.636;2024-03-02T05:00:26;7.10;99.90
4759;DHT22;2393;50.560;12.636;2024-03-02T05:02:55;6.90;99.90
4759;DHT22;2393;50.560;12.636;2024-03-02T05:05:23;6.90;99.90
4759;DHT22;2393;50.560;12.636;2024-03-02T05:07:51;7.00;99.90
4759;DHT22;2393;50.560;12.636;2024-03-02T05:10:20;7.00;99.90
4759;DHT22;2393;50.560;12.636;2024-03-02T05:12:48;7.10;99.90
4759;DHT22;2393;50.560;12.636;2024-03-02T05:15:28;7.10;99.90
4759;DHT22;2393;50.560;12.636;2024-03-02T05:17:56;7.10;99.90
4759;DHT22;2393;50.560;12.636;2024-03-02T05:20:27;7.10;99.90
4759;DHT22;2393;50.560;12.636;2024-03-02T05:22:55;7.10;99.90
4759;DHT22;2393;50.560;12.636;2024-03-02T05:25:24;7.10;99.90
4759;DHT22;2393;50.560;12.636;2024-03-02T05:27:52;7.20;99.90
4759;DHT22;2393;50.560;12.636;2024-03-02T05:30:21;7.20;99.90
4759;DHT22;2393;50.560;12.636;2024-03-02T05:32:50;7.20;99.90
4759;DHT22;2393;50.560;12.636;2024-03-02T05:35:19;7.10;99.90
4759;DHT22;2393;50.560;12.636;2024-03-02T05:37:47;7.20;99.90
4759;DHT22;2393;50.560;12.636;2024-03-02T05:40:16;7.10;99.90
4759;DHT22;2393;50.560;12.636;2024-03-02T05:42:46;7.10;99.90
4759;DHT22;2393;50.560;12.636;2024-03-02T05:45:15;7.10;99.90
4759;DHT22;2393;50.560;12.636;2024-03-02T05:47:44;7.10;99.90
4759;DHT22;2393;50.560;12.636;2024-03-02T05:50:14;7.10;99.90
4759;DHT22;2393;50.560;12.636;2024-03-02T05:52:42;7.10;99.90
4759;DHT22;2393;50.560;12.636;2024-03-02T05:55:11;7.10;99.90
4759;DHT22;2393;50.560;12.636;2024-03-02T05:57:40;7.10;99.90
4759;DHT22;2393;50.560;12.636;2024-03-02T06:00:22;7.10;99.90
4759;DHT22;2393;50.560;12.636;2024-03-02T06:02:51;7.10;99.90
4759;DHT22;2393;50.560;12.636;2024-03-02T06:05:21;7.10;99.90
4759;DHT22;2393;50.560;12.636;2024-03-02T06:07:50;7.10;99.90
4759;DHT22;2393;50.560;12.636;2024-03-02T06:10:18;7.10;99.90
4759;DHT22;2393;50.560;12.636;2024-03-02T06:12:48;7.10;99.90
4759;DHT22;2393;50.560;12.636;2024-03-02T06:15:16;7.10;99.90
4759;DHT22;2393;50.560;12.636;2024-03-02T06:17:45;7.10;99.90
4759;DHT22;2393;50.560;12.636;2024-03-02T06:20:13;7.10;99.90
4759;DHT22;2393;50.560;12.636;2024-03-02T06:22:43;7.10;99.90
4759;DHT22;2393;50.560;12.636;2024-03-02T06:25:12;7.10;99.90
4759;DHT22;2393;50.560;12.636;2024-03-02T06:27:40;7.10;99.90
4759;DHT22;2393;50.560;12.636;2024-03-02T06:30:09;7.10;99.90
4759;DHT22;2393;50.560;12.636;2024-03-02T06:32:38;7.10;99.90
4759;DHT22;2393;50.560;12.636;2024-03-02T06:35:07;7.20;99.90
4759;DHT22;2393;50.560;12.636;2024-03-02T06:37:38;7.00;99.90
4759;DHT22;2393;50.560;12.636;2024-03-02T06:40:09;7.00;99.90
4759;DHT22;2393;50.560;12.636;2024-03-02T06:42:38;6.90;99.90
4759;DHT22;2393;50.560;12.636;2024-03-02T06:45:06;6.90;99.90
4759;DHT22;2393;50.560;12.636;2024-03-02T06:47:35;6.90;99.90
4759;DHT22;2393;50.560;12.636;2024-03-02T06:50:05;6.80;99.90
4759;DHT22;2393;50.560;12.636;2024-03-02T06:52:34;6.80;99.90
4759;DHT22;2393;50.560;12.636;2024-03-02T06:55:03;6.70;99.90
4759;DHT22;2393;50.560;12.636;2024-03-02T06:57:33;6.70;99.90
4759;DHT22;2393;50.560;12.636;2024-03-02T07:00:02;6.60;99.90
4759;DHT22;2393;50.560;12.636;2024-03-02T07:02:32;6.50;99.90
4759;DHT22;2393;50.560;12.636;2024-03-02T07:05:00;6.40;99.90
4759;DHT22;2393;50.560;12.636;2024-03-02T07:07:29;6.40;99.90
4759;DHT22;2393;50.560;12.636;2024-03-02T07:09:57;6.50;99.90
4759;DHT22;2393;50.560;12.636;2024-03-02T07:12:26;6.50;99.90
4759;DHT22;2393;50.560;12.636;2024-03-02T07:14:56;6.60;99.90
4759;DHT22;2393;50.560;12.636;2024-03-02T07:17:52;6.70;99.90
4759;DHT22;2393;50.560;12.636;2024-03-02T07:20:21;6.80;99.90
4759;DHT22;2393;50.560;12.636;2024-03-02T07:22:49;6.90;99.90
4759;DHT22;2393;50.560;12.636;2024-03-02T07:25:17;6.90;99.90
4759;DHT22;2393;50.560;12.636;2024-03-02T07:27:49;7.00;99.90
4759;DHT22;2393;50.560;12.636;2024-03-02T07:30:20;7.00;99.90
4759;DHT22;2393;50.560;12.636;2024-03-02T07:32:50;7.10;99.90
4759;DHT22;2393;50.560;12.636;2024-03-02T07:35:19;7.10;99.90
4759;DHT22;2393;50.560;12.636;2024-03-02T07:37:49;7.20;99.90
4759;DHT22;2393;50.560;12.636;2024-03-02T07:40:18;7.20;99.90
4759;DHT22;2393;50.560;12.636;2024-03-02T07:42:47;7.20;99.90
4759;DHT22;2393;50.560;12.636;2024-03-02T07:45:15;7.30;99.90
4759;DHT22;2393;50.560;12.636;2024-03-02T07:47:46;7.40;99.90
4759;DHT22;2393;50.560;12.636;2024-03-02T07:50:14;7.40;99.90
4759;DHT22;2393;50.560;12.636;2024-03-02T07:52:43;7.40;99.90
4759;DHT22;2393;50.560;12.636;2024-03-02T07:55:12;7.50;99.90
4759;DHT22;2393;50.560;12.636;2024-03-02T07:57:41;7.40;99.90
4759;DHT22;2393;50.560;12.636;2024-03-02T08:00:11;7.30;99.90
4759;DHT22;2393;50.560;12.636;2024-03-02T08:02:41;7.20;99.90
4759;DHT22;2393;50.560;12.636;2024-03-02T08:05:11;7.20;99.90
4759;DHT22;2393;50.560;12.636;2024-03-02T08:07:40;7.20;99.90
4759;DHT22;2393;50.560;12.636;2024-03-02T08:10:09;7.30;99.90
4759;DHT22;2393;50.560;12.636;2024-03-02T08:12:37;7.40;99.90
4759;DHT22;2393;50.560;12.636;2024-03-02T08:15:06;7.50;99.90
4759;DHT22;2393;50.560;12.636;2024-03-02T08:17:35;7.60;99.90
4759;DHT22;2393;50.560;12.636;2024-03-02T08:20:06;7.60;99.90
4759;DHT22;2393;50.560;12.636;2024-03-02T08:22:36;7.60;99.90
4759;DHT22;2393;50.560;12.636;2024-03-02T08:25:06;7.60;99.90
4759;DHT22;2393;50.560;12.636;2024-03-02T08:27:35;7.60;99.90
4759;DHT22;2393;50.560;12.636;2024-03-02T08:30:04;7.60;99.90
4759;DHT22;2393;50.560;12.636;2024-03-02T08:32:34;7.60;99.90
4759;DHT22;2393;50.560;12.636;2024-03-02T08:35:03;7.60;99.90
4759;DHT22;2393;50.560;12.636;2024-03-02T08:37:32;7.60;99.90
4759;DHT22;2393;50.560;12.636;2024-03-02T08:40:02;7.50;99.90
4759;DHT22;2393;50.560;12.636;2024-03-02T08:42:36;7.70;99.90
4759;DHT22;2393;50.560;12.636;2024-03-02T08:45:06;7.80;99.90
4759;DHT22;2393;50.560;12.636;2024-03-02T08:47:34;8.00;99.90
4759;DHT22;2393;50.560;12.636;2024-03-02T08:50:03;8.20;99.90
4759;DHT22;2393;50.560;12.636;2024-03-02T08:52:33;8.30;99.90
4759;DHT22;2393;50.560;12.636;2024-03-02T08:55:04;8.30;99.90
4759;DHT22;2393;50.560;12.636;2024-03-02T08:57:32;8.30;99.90
4759;DHT22;2393;50.560;12.636;2024-03-02T09:00:01;8.30;99.90
4759;DHT22;2393;50.560;12.636;2024-03-02T09:02:30;8.30;99.90
4759;DHT22;2393;50.560;12.636;2024-03-02T09:04:58;8.30;99.90
4759;DHT22;2393;50.560;12.636;2024-03-02T09:07:27;8.40;99.90
4759;DHT22;2393;50.560;12.636;2024-03-02T09:09:56;8.40;99.90
4759;DHT22;2393;50.560;12.636;2024-03-02T09:12:25;8.50;99.90
4759;DHT22;2393;50.560;12.636;2024-03-02T09:14:54;8.60;99.90
4759;DHT22;2393;50.560;12.636;2024-03-02T09:17:22;8.50;99.90
4759;DHT22;2393;50.560;12.636;2024-03-02T09:19:51;8.40;99.90
4759;DHT22;2393;50.560;12.636;2024-03-02T09:22:20;8.40;99.90
4759;DHT22;2393;50.560;12.636;2024-03-02T09:24:48;8.40;99.90
4759;DHT22;2393;50.560;12.636;2024-03-02T09:27:17;8.40;99.90
4759;DHT22;2393;50.560;12.636;2024-03-02T09:29:46;8.50;99.90
4759;DHT22;2393;50.560;12.636;2024-03-02T09:32:15;8.50;99.90
4759;DHT22;2393;50.560;12.636;2024-03-02T09:34:43;8.50;99.90
4759;DHT22;2393;50.560;12.636;2024-03-02T09:37:12;8.50;99.90
4759;DHT22;2393;50.560;12.636;2024-03-02T09:39:40;8.50;99.90
4759;DHT22;2393;50.560;12.636;2024-03-02T09:42:12;8.40;99.90
4759;DHT22;2393;50.560;12.636;2024-03-02T09:44:41;8.50;99.90
4759;DHT22;2393;50.560;12.636;2024-03-02T09:47:11;8.60;99.90
4759;DHT22;2393;50.560;12.636;2024-03-02T09:49:40;8.70;99.90
4759;DHT22;2393;50.560;12.636;2024-03-02T09:52:09;8.80;99.90
4759;DHT22;2393;50.560;12.636;2024-03-02T09:54:38;8.90;99.90
4759;DHT22;2393;50.560;12.636;2024-03-02T09:57:06;9.10;99.90
4759;DHT22;2393;50.560;12.636;2024-03-02T09:59:35;9.30;99.90
4759;DHT22;2393;50.560;12.636;2024-03-02T10:02:03;9.50;99.90
4759;DHT22;2393;50.560;12.636;2024-03-02T10:04:36;9.60;99.90
4759;DHT22;2393;50.560;12.636;2024-03-02T10:07:15;9.80;99.90
4759;DHT22;2393;50.560;12.636;2024-03-02T10:09:44;10.00;99.90
4759;DHT22;2393;50.560;12.636;2024-03-02T10:12:15;10.10;99.90
4759;DHT22;2393;50.560;12.636;2024-03-02T10:14:43;10.20;99.90
4759;DHT22;2393;50.560;12.636;2024-03-02T10:17:13;10.20;99.90
4759;DHT22;2393;50.560;12.636;2024-03-02T10:19:44;10.30;99.90
4759;DHT22;2393;50.560;12.636;2024-03-02T10:22:12;10.30;99.90
4759;DHT22;2393;50.560;12.636;2024-03-02T10:24:42;10.40;99.90
4759;DHT22;2393;50.560;12.636;2024-03-02T10:27:16;10.40;99.90
4759;DHT22;2393;50.560;12.636;2024-03-02T10:29:46;10.50;99.90
4759;DHT22;2393;50.560;12.636;2024-03-02T10:32:15;10.60;99.90
4759;DHT22;2393;50.560;12.636;2024-03-02T10:34:46;10.60;99.90
4759;DHT22;2393;50.560;12.636;2024-03-02T10:37:16;10.80;99.90
4759;DHT22;2393;50.560;12.636;2024-03-02T10:39:46;10.80;99.90
4759;DHT22;2393;50.560;12.636;2024-03-02T10:42:16;11.00;99.90
4759;DHT22;2393;50.560;12.636;2024-03-02T10:44:45;11.10;99.90
4759;DHT22;2393;50.560;12.636;2024-03-02T10:47:15;11.30;99.90
4759;DHT22;2393;50.560;12.636;2024-03-02T10:49:50;11.40;99.90
4759;DHT22;2393;50.560;12.636;2024-03-02T10:52:19;11.50;99.90
4759;DHT22;2393;50.560;12.636;2024-03-02T10:54:50;11.70;99.90
4759;DHT22;2393;50.560;12.636;2024-03-02T10:57:21;11.80;99.90
4759;DHT22;2393;50.560;12.636;2024-03-02T10:59:53;12.10;99.90
4759;DHT22;2393;50.560;12.636;2024-03-02T11:02:25;12.60;99.90
4759;DHT22;2393;50.560;12.636;2024-03-02T11:05:00;13.10;99.90
4759;DHT22;2393;50.560;12.636;2024-03-02T11:07:35;13.60;99.90
4759;DHT22;2393;50.560;12.636;2024-03-02T11:10:05;13.60;99.90
4759;DHT22;2393;50.560;12.636;2024-03-02T11:12:38;13.80;99.90
4759;DHT22;2393;50.560;12.636;2024-03-02T11:15:10;13.90;99.90
4759;DHT22;2393;50.560;12.636;2024-03-02T11:17:40;14.00;99.90
4759;DHT22;2393;50.560;12.636;2024-03-02T11:20:11;14.00;99.90
4759;DHT22;2393;50.560;12.636;2024-03-02T11:22:39;14.00;99.90
4759;DHT22;2393;50.560;12.636;2024-03-02T11:25:22;14.20;99.90
4759;DHT22;2393;50.560;12.636;2024-03-02T11:28:02;14.30;99.90
4759;DHT22;2393;50.560;12.636;2024-03-02T11:30:51;14.50;99.90
4759;DHT22;2393;50.560;12.636;2024-03-02T11:33:26;14.70;99.90
4759;DHT22;2393;50.560;12.636;2024-03-02T11:36:00;14.90;99.90
4759;DHT22;2393;50.560;12.636;2024-03-02T11:38:32;14.80;99.90
4759;DHT22;2393;50.560;12.636;2024-03-02T11:41:02;15.00;99.90
4759;DHT22;2393;50.560;12.636;2024-03-02T11:43:31;15.10;99.90
4759;DHT22;2393;50.560;12.636;2024-03-02T11:46:01;15.10;99.90
4759;DHT22;2393;50.560;12.636;2024-03-02T11:48:35;15.00;99.90
4759;DHT22;2393;50.560;12.636;2024-03-02T11:51:06;14.80;99.90
4759;DHT22;2393;50.560;12.636;2024-03-02T11:53:35;14.70;99.90
4759;DHT22;2393;50.560;12.636;2024-03-02T11:56:09;14.30;99.90
4759;DHT22;2393;50.560;12.636;2024-03-02T11:58:39;14.20;99.90
4759;DHT22;2393;50.560;12.636;2024-03-02T12:01:10;14.20;99.90
4759;DHT22;2393;50.560;12.636;2024-03-02T12:03:40;14.20;99.90
4759;DHT22;2393;50.560;12.636;2024-03-02T12:06:11;13.80;99.90
4759;DHT22;2393;50.560;12.636;2024-03-02T12:08:40;13.90;99.90
4759;DHT22;2393;50.560;12.636;2024-03-02T12:11:13;14.00;99.90
4759;DHT22;2393;50.560;12.636;2024-03-02T12:13:52;14.10;99.90
4759;DHT22;2393;50.560;12.636;2024-03-02T12:16:25;14.20;99.90
4759;DHT22;2393;50.560;12.636;2024-03-02T12:18:54;14.30;99.90
4759;DHT22;2393;50.560;12.636;2024-03-02T12:21:24;14.40;99.90
4759;DHT22;2393;50.560;12.636;2024-03-02T12:23:52;14.30;99.90
4759;DHT22;2393;50.560;12.636;2024-03-02T12:26:22;14.20;99.90
4759;DHT22;2393;50.560;12.636;2024-03-02T12:28:51;14.20;99.90
4759;DHT22;2393;50.560;12.636;2024-03-02T12:31:20;14.10;99.90
4759;DHT22;2393;50.560;12.636;2024-03-02T12:33:48;13.70;99.90
4759;DHT22;2393;50.560;12.636;2024-03-02T12:36:17;13.50;99.90
4759;DHT22;2393;50.560;12.636;2024-03-02T12:38:48;13.40;99.90
4759;DHT22;2393;50.560;12.636;2024-03-02T12:41:22;13.00;99.90
4759;DHT22;2393;50.560;12.636;2024-03-02T12:43:51;12.70;99.90
4759;DHT22;2393;50.560;12.636;2024-03-02T12:46:19;12.60;99.90
4759;DHT22;2393;50.560;12.636;2024-03-02T12:48:48;12.40;99.90
4759;DHT22;2393;50.560;12.636;2024-03-02T12:51:16;12.50;99.90
4759;DHT22;2393;50.560;12.636;2024-03-02T12:53:44;12.60;99.90
4759;DHT22;2393;50.560;12.636;2024-03-02T12:56:14;12.40;99.90
4759;DHT22;2393;50.560;12.636;2024-03-02T12:58:43;12.20;99.90
4759;DHT22;2393;50.560;12.636;2024-03-02T13:01:14;12.40;99.90
4759;DHT22;2393;50.560;12.636;2024-03-02T13:03:48;12.50;99.90
4759;DHT22;2393;50.560;12.636;2024-03-02T13:06:18;12.50;99.90
4759;DHT22;2393;50.560;12.636;2024-03-02T13:08:47;12.60;99.90
4759;DHT22;2393;50.560;12.636;2024-03-02T13:11:17;12.80;99.90
4759;DHT22;2393;50.560;12.636;2024-03-02T13:13:46;13.10;99.90
4759;DHT22;2393;50.560;12.636;2024-03-02T13:16:15;13.40;99.90
4759;DHT22;2393;50.560;12.636;2024-03-02T13:18:45;13.60;99.90
4759;DHT22;2393;50.560;12.636;2024-03-02T13:21:14;13.60;99.90
4759;DHT22;2393;50.560;12.636;2024-03-02T13:23:42;13.70;99.90
4759;DHT22;2393;50.560;12.636;2024-03-02T13:26:11;13.90;99.90
4759;DHT22;2393;50.560;12.636;2024-03-02T13:28:41;14.00;99.90
4759;DHT22;2393;50.560;12.636;2024-03-02T13:31:09;14.20;99.90
4759;DHT22;2393;50.560;12.636;2024-03-02T13:33:39;14.30;99.90
4759;DHT22;2393;50.560;12.636;2024-03-02T13:36:08;14.30;99.90
4759;DHT22;2393;50.560;12.636;2024-03-02T13:38:37;14.40;99.90
4759;DHT22;2393;50.560;12.636;2024-03-02T13:41:05;14.40;99.90
4759;DHT22;2393;50.560;12.636;2024-03-02T13:43:34;14.50;99.90
4759;DHT22;2393;50.560;12.636;2024-03-02T13:46:06;14.50;99.90
4759;DHT22;2393;50.560;12.636;2024-03-02T13:48:34;14.50;99.90
4759;DHT22;2393;50.560;12.636;2024-03-02T13:51:04;14.40;99.90
4759;DHT22;2393;50.560;12.636;2024-03-02T13:53:34;14.50;99.90
4759;DHT22;2393;50.560;12.636;2024-03-02T13:56:03;14.60;99.90
4759;DHT22;2393;50.560;12.636;2024-03-02T13:58:32;14.60;99.90
4759;DHT22;2393;50.560;12.636;2024-03-02T14:01:01;14.40;99.90
4759;DHT22;2393;50.560;12.636;2024-03-02T14:03:33;14.40;99.90
4759;DHT22;2393;50.560;12.636;2024-03-02T14:06:03;14.20;99.90
4759;DHT22;2393;50.560;12.636;2024-03-02T14:08:34;14.10;99.90
4759;DHT22;2393;50.560;12.636;2024-03-02T14:11:03;14.10;99.90
4759;DHT22;2393;50.560;12.636;2024-03-02T14:13:32;14.10;99.90
4759;DHT22;2393;50.560;12.636;2024-03-02T14:16:01;14.10;99.90
4759;DHT22;2393;50.560;12.636;2024-03-02T14:22:14;14.30;99.90
4759;DHT22;2393;50.560;12.636;2024-03-02T14:24:44;14.20;99.90
4759;DHT22;2393;50.560;12.636;2024-03-02T14:27:13;14.20;99.90
4759;DHT22;2393;50.560;12.636;2024-03-02T14:29:59;14.20;99.90
4759;DHT22;2393;50.560;12.636;2024-03-02T14:32:27;14.00;99.90
4759;DHT22;2393;50.560;12.636;2024-03-02T14:34:56;14.10;99.90
4759;DHT22;2393;50.560;12.636;2024-03-02T14:37:26;14.00;99.90
4759;DHT22;2393;50.560;12.636;2024-03-02T14:39:54;14.10;99.90
4759;DHT22;2393;50.560;12.636;2024-03-02T14:42:23;13.90;99.90
4759;DHT22;2393;50.560;12.636;2024-03-02T14:44:52;13.90;99.90
4759;DHT22;2393;50.560;12.636;2024-03-02T14:47:20;13.60;99.90
4759;DHT22;2393;50.560;12.636;2024-03-02T14:49:49;13.70;99.90
4759;DHT22;2393;50.560;12.636;2024-03-02T14:52:17;13.70;99.90
4759;DHT22;2393;50.560;12.636;2024-03-02T14:54:47;13.70;99.90
4759;DHT22;2393;50.560;12.636;2024-03-02T14:57:16;13.90;99.90
4759;DHT22;2393;50.560;12.636;2024-03-02T14:59:44;14.00;99.90
4759;DHT22;2393;50.560;12.636;2024-03-02T15:02:13;14.00;99.90
4759;DHT22;2393;50.560;12.636;2024-03-02T15:04:41;14.00;99.90
4759;DHT22;2393;50.560;12.636;2024-03-02T15:07:11;14.00;99.90
4759;DHT22;2393;50.560;12.636;2024-03-02T15:09:40;13.90;99.90
4759;DHT22;2393;50.560;12.636;2024-03-02T15:12:10;13.60;99.90
4759;DHT22;2393;50.560;12.636;2024-03-02T15:14:40;13.50;99.90
4759;DHT22;2393;50.560;12.636;2024-03-02T15:17:13;13.50;99.90
4759;DHT22;2393;50.560;12.636;2024-03-02T15:19:43;13.40;99.90
4759;DHT22;2393;50.560;12.636;2024-03-02T15:22:12;13.50;99.90
4759;DHT22;2393;50.560;12.636;2024-03-02T15:24:41;13.40;99.90
4759;DHT22;2393;50.560;12.636;2024-03-02T15:27:10;13.40;99.90
4759;DHT22;2393;50.560;12.636;2024-03-02T15:29:39;13.40;99.90
4759;DHT22;2393;50.560;12.636;2024-03-02T15:32:07;13.30;99.90
4759;DHT22;2393;50.560;12.636;2024-03-02T15:34:36;13.30;99.90
4759;DHT22;2393;50.560;12.636;2024-03-02T15:37:05;13.20;99.90
4759;DHT22;2393;50.560;12.636;2024-03-02T15:39:33;13.20;99.90
4759;DHT22;2393;50.560;12.636;2024-03-02T15:42:02;13.10;99.90
4759;DHT22;2393;50.560;12.636;2024-03-02T15:44:33;12.80;99.90
4759;DHT22;2393;50.560;12.636;2024-03-02T15:47:02;12.70;99.90
4759;DHT22;2393;50.560;12.636;2024-03-02T15:49:31;12.60;99.90
4759;DHT22;2393;50.560;12.636;2024-03-02T15:52:00;12.60;99.90
4759;DHT22;2393;50.560;12.636;2024-03-02T15:54:28;12.50;99.90
4759;DHT22;2393;50.560;12.636;2024-03-02T15:56:57;12.30;99.90
4759;DHT22;2393;50.560;12.636;2024-03-02T15:59:25;12.30;99.90
4759;DHT22;2393;50.560;12.636;2024-03-02T16:01:55;12.20;99.90
4759;DHT22;2393;50.560;12.636;2024-03-02T16:04:25;12.20;99.90
4759;DHT22;2393;50.560;12.636;2024-03-02T16:06:55;12.00;99.90
4759;DHT22;2393;50.560;12.636;2024-03-02T16:09:23;11.90;99.90
4759;DHT22;2393;50.560;12.636;2024-03-02T16:11:52;11.70;99.90
4759;DHT22;2393;50.560;12.636;2024-03-02T16:14:20;11.70;99.90
4759;DHT22;2393;50.560;12.636;2024-03-02T16:16:49;11.60;99.90
4759;DHT22;2393;50.560;12.636;2024-03-02T16:19:18;11.50;99.90